30/05/05 - 08h:31mDenunciar

General Dynamics F-16A Fighting Falcon

Imagem de Steven Hadlow, retirada do site Jetphotos.net.





METAR SBPB 301100Z 11010KT 9999 FEW020 30/25 Q1013=

Comentários (0)

Fotos postadas a mais de 15 dias não podem receber comentários.